Time;durP1;ratioP1;P1;durP2;ratioP2;P2;SDS_P1;SDS_P2;PMS_P1;PMS_P2;Temp;Humidity;BMP_temperature;BMP_pressure;BME280_temperature;BME280_humidity;BME280_pressure;Samples;Min_cycle;Max_cycle;Signal;HPM_P1;HPM_P2
2022/06/01 00:02:10;;;;;;;3.97;3.67;;;9.80;1.00;;;;;;4966411;28;20196;-45
2022/06/01 00:04:35;;;;;;;4.60;3.80;;;9.70;1.00;;;;;;4964997;28;20189;-45
2022/06/01 00:07:01;;;;;;;3.90;3.60;;;9.70;1.00;;;;;;4961025;28;20224;-45
2022/06/01 00:09:26;;;;;;;5.83;4.20;;;9.70;1.00;;;;;;4961572;28;20185;-45
2022/06/01 00:11:52;;;;;;;5.40;4.90;;;9.80;1.00;;;;;;4960562;28;20208;-46
2022/06/01 00:14:18;;;;;;;6.37;5.23;;;9.80;1.00;;;;;;4964901;28;20264;-45
2022/06/01 00:16:44;;;;;;;5.33;4.80;;;9.80;7.40;;;;;;4964552;28;20221;-45
2022/06/01 00:19:10;;;;;;;5.17;4.77;;;9.90;63.60;;;;;;4963652;28;20437;-45
2022/06/01 00:22:11;;;;;;;6.80;4.67;;;9.90;42.80;;;;;;4968988;28;20642;-45
2022/06/01 00:24:22;;;;;;;4.87;4.40;;;10.00;24.30;;;;;;4961021;28;20462;-45
2022/06/01 00:26:50;;;;;;;5.30;4.63;;;10.00;15.20;;;;;;4958736;28;20445;-44
2022/06/01 00:29:15;;;;;;;5.13;4.67;;;10.10;31.50;;;;;;4959025;28;20288;-49
2022/06/01 00:31:41;;;;;;;4.83;4.30;;;10.10;7.40;;;;;;4962054;28;20508;-49
2022/06/01 00:34:06;;;;;;;4.23;3.87;;;10.10;2.20;;;;;;4962627;28;20918;-50
2022/06/01 00:36:32;;;;;;;4.50;4.10;;;10.10;12.10;;;;;;4965963;28;20724;-49
2022/06/01 00:38:58;;;;;;;5.60;5.10;;;10.10;23.20;;;;;;4964025;28;20186;-50
2022/06/01 00:41:24;;;;;;;5.73;5.07;;;10.10;28.00;;;;;;4963222;28;20472;-50
2022/06/01 00:43:49;;;;;;;5.13;4.73;;;10.20;44.00;;;;;;4962110;28;20193;-50
2022/06/01 00:46:15;;;;;;;5.37;4.87;;;10.20;61.60;;;;;;4964156;28;21020;-50
2022/06/01 00:48:46;;;;;;;4.70;4.30;;;10.10;91.50;;;;;;4963266;28;20186;-50
2022/06/01 00:51:14;;;;;;;5.03;4.63;;;10.10;95.30;;;;;;4969272;28;20686;-50
2022/06/01 00:53:42;;;;;;;5.50;4.60;;;10.10;78.40;;;;;;4965789;28;20425;-50
2022/06/01 00:56:14;;;;;;;6.43;5.40;;;10.10;82.10;;;;;;4977879;28;20571;-50
2022/06/01 00:58:42;;;;;;;9.17;4.67;;;10.00;63.70;;;;;;4969690;28;20437;-50
2022/06/01 01:01:13;;;;;;;5.73;5.13;;;10.00;42.90;;;;;;4959681;28;20526;-50
2022/06/01 01:03:41;;;;;;;7.13;5.17;;;9.90;56.40;;;;;;4960388;28;20507;-50
2022/06/01 01:06:17;;;;;;;5.27;4.77;;;9.90;61.90;;;;;;4958958;28;20463;-50
2022/06/01 01:08:44;;;;;;;6.90;4.70;;;9.80;64.70;;;;;;4957626;28;20440;-50
2022/06/01 01:11:11;;;;;;;6.63;4.80;;;9.70;99.90;;;;;;4966975;28;20446;-50
2022/06/01 01:13:40;;;;;;;6.23;5.40;;;9.60;99.90;;;;;;4965462;28;20496;-51
2022/06/01 01:16:06;;;;;;;5.20;4.70;;;9.60;99.90;;;;;;4954499;28;20472;-45
2022/06/01 01:18:41;;;;;;;6.13;5.00;;;9.50;99.90;;;;;;4964602;28;20425;-45
2022/06/01 01:21:41;;;;;;;5.60;5.07;;;9.50;99.90;;;;;;4957170;28;20531;-45
2022/06/01 01:24:13;;;;;;;5.27;4.70;;;9.40;99.90;;;;;;4963204;28;20908;-49
2022/06/01 01:26:42;;;;;;;5.13;4.60;;;9.30;99.90;;;;;;4968855;28;20499;-46
2022/06/01 01:29:09;;;;;;;7.07;5.33;;;9.20;99.90;;;;;;4963633;28;20503;-47
2022/06/01 01:31:37;;;;;;;5.63;4.60;;;9.20;99.90;;;;;;4960117;28;20444;-47
2022/06/01 01:34:03;;;;;;;7.00;5.27;;;9.10;99.90;;;;;;4962712;28;20953;-45
2022/06/01 01:36:34;;;;;;;5.50;5.00;;;9.10;99.90;;;;;;4956853;28;20472;-46
2022/06/01 01:39:12;;;;;;;4.90;4.50;;;9.00;99.90;;;;;;4964682;28;20177;-47
2022/06/01 01:41:40;;;;;;;8.00;4.93;;;9.00;99.90;;;;;;4960277;28;20448;-46
2022/06/01 01:44:19;;;;;;;6.20;5.40;;;8.90;99.90;;;;;;4959161;28;20429;-46
2022/06/01 01:46:50;;;;;;;5.67;5.17;;;8.90;99.90;;;;;;4960111;28;20808;-47
2022/06/01 01:49:17;;;;;;;8.40;5.67;;;8.80;99.90;;;;;;4968795;28;20439;-46
2022/06/01 01:51:43;;;;;;;6.37;5.70;;;8.80;99.90;;;;;;4967113;28;21194;-47
2022/06/01 01:54:19;;;;;;;6.40;5.07;;;8.70;1.00;;;;;;4970562;28;20462;-47
2022/06/01 01:57:06;;;;;;;5.53;5.03;;;8.60;1.00;;;;;;4963318;28;20946;-47
2022/06/01 02:00:09;;;;;;;6.47;5.87;;;8.60;1.00;;;;;;4966374;28;20492;-47
2022/06/01 02:02:43;;;;;;;5.73;5.23;;;8.50;1.00;;;;;;4967943;28;20494;-46
2022/06/01 02:08:24;;;;;;;6.40;5.80;;;8.50;1.00;;;;;;4965092;28;20423;-46
2022/06/01 02:13:39;;;;;;;6.17;5.67;;;8.50;41.20;;;;;;4967024;28;20424;-46
2022/06/01 02:16:06;;;;;;;6.93;6.23;;;8.50;20.00;;;;;;4969546;28;20807;-45
2022/06/01 02:18:38;;;;;;;7.10;6.40;;;8.50;99.90;;;;;;4962906;28;20934;-47
2022/06/01 02:21:09;;;;;;;8.53;6.40;;;8.50;99.90;;;;;;4969265;28;20441;-46
2022/06/01 02:23:37;;;;;;;7.30;6.60;;;8.60;1.00;;;;;;4968471;28;20444;-46
2022/06/01 02:26:03;;;;;;;6.57;5.90;;;8.60;1.00;;;;;;4968116;28;20444;-46
2022/06/01 02:28:30;;;;;;;6.90;6.00;;;8.70;99.90;;;;;;4970314;28;20459;-52
2022/06/01 02:30:56;;;;;;;11.13;7.23;;;8.70;99.90;;;;;;4968772;28;20437;-53
2022/06/01 02:33:26;;;;;;;7.77;6.37;;;8.70;99.90;;;;;;4962369;28;20437;-52
2022/06/01 02:35:54;;;;;;;6.77;6.17;;;8.70;99.90;;;;;;4965163;28;20465;-52
2022/06/01 02:38:25;;;;;;;6.97;6.37;;;8.80;99.90;;;;;;4964142;28;20929;-53
2022/06/01 02:40:51;;;;;;;7.67;6.90;;;8.80;99.90;;;;;;4962192;28;20444;-52
2022/06/01 02:43:17;;;;;;;6.23;5.63;;;8.80;1.00;;;;;;4968412;28;20522;-53
2022/06/01 02:45:42;;;;;;;6.33;5.73;;;8.80;1.00;;;;;;4967775;28;20999;-53
2022/06/01 02:48:09;;;;;;;6.50;5.70;;;8.80;1.00;;;;;;4965001;28;20185;-53
2022/06/01 02:50:36;;;;;;;7.60;6.90;;;8.90;99.90;;;;;;4969866;28;20244;-52
2022/06/01 02:53:03;;;;;;;7.30;6.33;;;8.90;22.30;;;;;;4963747;28;20788;-52
2022/06/01 02:55:30;;;;;;;7.13;6.43;;;8.90;99.90;;;;;;4966409;28;20442;-53
2022/06/01 02:57:57;;;;;;;8.27;6.37;;;8.90;99.90;;;;;;4965822;28;20441;-52
2022/06/01 03:00:28;;;;;;;6.70;6.10;;;8.90;99.90;;;;;;4963437;28;20479;-52
2022/06/01 03:02:57;;;;;;;6.07;5.53;;;8.90;1.00;;;;;;4960333;28;20536;-51
2022/06/01 03:05:26;;;;;;;7.00;6.30;;;8.80;1.00;;;;;;4958720;28;20982;-52
2022/06/01 03:07:52;;;;;;;7.63;6.90;;;8.80;1.00;;;;;;4967630;28;20444;-52
2022/06/01 03:10:18;;;;;;;7.30;6.50;;;8.80;1.00;;;;;;4964150;28;20557;-53
2022/06/01 03:12:44;;;;;;;7.30;6.60;;;8.80;26.60;;;;;;4970110;28;20441;-52
2022/06/01 03:15:12;;;;;;;15.97;7.07;;;8.80;1.00;;;;;;4963758;28;20560;-52
2022/06/01 03:17:37;;;;;;;7.10;6.40;;;8.80;1.00;;;;;;4958704;28;20469;-53
2022/06/01 03:20:08;;;;;;;8.70;6.60;;;8.80;1.00;;;;;;4968876;28;20852;-53
2022/06/01 03:22:38;;;;;;;8.43;6.80;;;8.80;99.90;;;;;;4965720;28;20205;-49
2022/06/01 03:25:07;;;;;;;9.03;6.90;;;8.80;1.00;;;;;;4958848;28;20460;-53
2022/06/01 03:27:34;;;;;;;7.27;6.57;;;8.70;1.00;;;;;;4957501;28;20435;-53
2022/06/01 03:30:00;;;;;;;10.70;6.20;;;8.70;1.00;;;;;;4962940;28;20425;-52
2022/06/01 03:32:25;;;;;;;5.80;5.20;;;8.70;99.90;;;;;;4960795;28;20496;-52
2022/06/01 03:34:51;;;;;;;7.40;6.60;;;8.70;1.00;;;;;;4963138;28;20600;-53
2022/06/01 03:37:17;;;;;;;7.43;6.70;;;8.70;99.90;;;;;;4966068;28;20223;-53
2022/06/01 03:39:42;;;;;;;9.30;7.27;;;8.70;1.00;;;;;;4961360;28;20756;-52
2022/06/01 03:42:08;;;;;;;7.13;6.13;;;8.80;1.00;;;;;;4969272;28;20189;-53
2022/06/01 03:47:18;;;;;;;6.40;5.80;;;8.80;99.90;;;;;;4966745;28;20563;-53
2022/06/01 03:49:43;;;;;;;6.90;6.03;;;8.80;1.00;;;;;;4968003;28;20459;-54
2022/06/01 03:52:10;;;;;;;7.00;6.30;;;9.00;1.00;;;;;;4961287;28;20246;-53
2022/06/01 03:54:37;;;;;;;11.77;7.20;;;9.10;99.90;;;;;;4965642;28;20197;-53
2022/06/01 03:57:03;;;;;;;8.70;6.80;;;9.20;12.10;;;;;;4965975;28;20486;-54
2022/06/01 03:59:29;;;;;;;8.57;6.90;;;9.30;99.90;;;;;;4968208;28;20531;-52
2022/06/01 04:01:55;;;;;;;10.03;7.27;;;9.40;15.80;;;;;;4969892;28;20189;-50
2022/06/01 04:04:21;;;;;;;9.20;6.40;;;9.50;58.00;;;;;;4965345;28;20934;-51
2022/06/01 04:06:46;;;;;;;7.07;6.37;;;9.60;1.00;;;;;;4960984;28;20193;-51
2022/06/01 04:09:12;;;;;;;10.57;6.47;;;9.70;1.00;;;;;;4964541;28;20711;-50
2022/06/01 04:11:37;;;;;;;8.20;6.70;;;9.90;1.00;;;;;;4961570;28;20220;-51
2022/06/01 04:14:03;;;;;;;7.20;6.03;;;10.00;99.90;;;;;;4961548;28;20189;-51
2022/06/01 04:16:28;;;;;;;7.63;6.30;;;10.10;1.00;;;;;;4967499;28;20217;-50
2022/06/01 04:18:54;;;;;;;6.90;6.20;;;10.20;1.00;;;;;;4965261;28;20216;-50
2022/06/01 04:21:24;;;;;;;5.60;5.10;;;10.40;99.90;;;;;;4960620;28;20188;-50
2022/06/01 04:23:50;;;;;;;7.00;5.40;;;10.40;25.00;;;;;;4958331;28;20629;-50
2022/06/01 04:26:16;;;;;;;6.60;5.40;;;10.50;1.00;;;;;;4966677;28;20476;-50
2022/06/01 04:28:43;;;;;;;6.17;5.57;;;10.60;99.90;;;;;;4958761;28;20452;-50
2022/06/01 04:31:08;;;;;;;5.53;5.00;;;10.60;99.90;;;;;;4968037;28;20540;-50
2022/06/01 04:33:34;;;;;;;6.10;5.43;;;10.70;99.90;;;;;;4957957;28;20420;-50
2022/06/01 04:36:00;;;;;;;5.30;4.57;;;10.70;99.90;;;;;;4969681;28;20216;-50
2022/06/01 04:38:26;;;;;;;5.50;4.93;;;10.80;77.40;;;;;;4960903;28;20429;-50
2022/06/01 04:40:52;;;;;;;5.43;4.60;;;10.80;31.80;;;;;;4964051;28;20193;-50
2022/06/01 04:43:21;;;;;;;5.00;4.50;;;10.90;1.00;;;;;;4961396;28;20181;-50
2022/06/01 04:45:49;;;;;;;5.40;4.80;;;11.00;1.00;;;;;;4966147;28;20456;-50
2022/06/01 04:48:15;;;;;;;5.87;4.73;;;11.00;1.00;;;;;;4966403;28;20436;-50
2022/06/01 04:50:42;;;;;;;7.10;4.60;;;11.20;1.00;;;;;;4963648;28;20523;-48
2022/06/01 04:53:13;;;;;;;8.20;5.20;;;11.20;1.00;;;;;;4961736;28;20193;-50
2022/06/01 04:55:39;;;;;;;5.83;5.00;;;11.20;1.00;;;;;;4966255;28;20445;-50
2022/06/01 04:58:05;;;;;;;5.17;4.73;;;11.30;1.00;;;;;;4969436;28;20439;-50
2022/06/01 05:00:33;;;;;;;6.33;4.60;;;11.30;1.00;;;;;;4965477;28;20416;-49
2022/06/01 05:02:59;;;;;;;5.33;4.30;;;11.30;1.00;;;;;;4956498;28;20197;-50
2022/06/01 05:05:24;;;;;;;5.73;5.13;;;11.40;1.00;;;;;;4962266;28;20437;-50
2022/06/01 05:07:50;;;;;;;5.97;4.90;;;11.40;1.00;;;;;;4968220;28;20433;-50
2022/06/01 05:10:15;;;;;;;6.07;4.47;;;11.50;1.00;;;;;;4965798;28;20190;-49
2022/06/01 05:12:41;;;;;;;5.07;4.20;;;11.50;1.00;;;;;;4959568;28;20328;-50
2022/06/01 05:15:07;;;;;;;5.13;4.73;;;11.50;1.00;;;;;;4960723;28;20590;-46
2022/06/01 05:17:33;;;;;;;5.50;4.53;;;11.50;1.00;;;;;;4965190;28;20225;-45
2022/06/01 05:20:00;;;;;;;5.87;4.77;;;11.50;1.00;;;;;;4966801;28;21279;-46
2022/06/01 05:22:25;;;;;;;5.90;4.90;;;11.60;1.00;;;;;;4966318;28;20197;-46
2022/06/01 05:24:51;;;;;;;6.27;4.83;;;11.70;1.00;;;;;;4970002;28;20415;-46
2022/06/01 05:27:16;;;;;;;5.63;4.83;;;11.60;1.00;;;;;;4967641;28;20216;-45
2022/06/01 05:29:42;;;;;;;5.43;4.93;;;11.70;1.00;;;;;;4970569;28;20267;-45
2022/06/01 05:32:10;;;;;;;6.27;5.07;;;11.60;1.00;;;;;;4961307;28;20193;-46
2022/06/01 05:34:36;;;;;;;6.00;5.40;;;11.60;1.00;;;;;;4963172;28;20654;-46
2022/06/01 05:37:02;;;;;;;5.27;4.77;;;11.60;1.00;;;;;;4961281;28;20465;-45
2022/06/01 05:39:27;;;;;;;6.37;5.23;;;11.60;1.00;;;;;;4971536;28;20185;-46
2022/06/01 05:41:53;;;;;;;9.37;6.23;;;11.50;1.00;;;;;;4962556;28;20823;-45
2022/06/01 05:44:18;;;;;;;8.67;5.23;;;11.50;1.00;;;;;;4967176;28;20644;-45
2022/06/01 05:46:44;;;;;;;6.67;5.60;;;11.30;1.00;;;;;;4964881;28;20181;-46
2022/06/01 05:49:09;;;;;;;6.53;5.90;;;11.30;1.00;;;;;;4968653;28;20202;-45
2022/06/01 05:51:35;;;;;;;8.67;6.97;;;11.30;1.00;;;;;;4960548;28;20237;-45
2022/06/01 05:54:02;;;;;;;7.70;6.30;;;11.30;1.00;;;;;;4965523;28;20182;-46
2022/06/01 05:56:28;;;;;;;8.70;7.80;;;11.30;1.00;;;;;;4968750;28;21370;-45
2022/06/01 05:58:53;;;;;;;10.30;8.20;;;11.20;1.00;;;;;;4968359;28;20440;-46
2022/06/01 06:01:22;;;;;;;9.33;8.33;;;11.10;1.00;;;;;;4967796;28;20192;-45
2022/06/01 06:03:48;;;;;;;10.10;8.80;;;11.10;1.00;;;;;;4971111;28;20223;-45
2022/06/01 06:06:15;;;;;;;16.83;9.97;;;10.90;1.00;;;;;;4958340;28;20434;-46
2022/06/01 06:08:49;;;;;;;11.50;9.90;;;10.80;1.00;;;;;;4966506;28;20500;-46
2022/06/01 06:11:16;;;;;;;11.60;10.40;;;10.70;1.00;;;;;;4963474;28;20807;-46
2022/06/01 06:13:41;;;;;;;12.17;10.87;;;10.60;1.00;;;;;;4965323;28;20463;-46
2022/06/01 06:16:07;;;;;;;11.23;10.20;;;10.50;1.00;;;;;;4962491;28;20467;-47
2022/06/01 06:18:34;;;;;;;15.47;11.37;;;10.40;1.00;;;;;;4968367;28;20173;-48
2022/06/01 06:20:59;;;;;;;13.43;10.93;;;10.40;1.00;;;;;;4961370;28;20954;-48
2022/06/01 06:23:25;;;;;;;12.40;10.90;;;10.30;1.00;;;;;;4968523;28;20420;-48
2022/06/01 06:25:50;;;;;;;13.43;11.67;;;10.30;64.30;;;;;;4965186;28;20201;-48
2022/06/01 06:28:16;;;;;;;12.23;10.50;;;10.20;99.90;;;;;;4968230;28;20252;-47
2022/06/01 06:30:42;;;;;;;13.53;12.07;;;10.20;99.90;;;;;;4965146;28;20197;-47
2022/06/01 06:33:08;;;;;;;17.77;12.60;;;10.10;99.90;;;;;;4965055;28;20926;-47
2022/06/01 06:35:35;;;;;;;16.33;13.43;;;10.10;1.00;;;;;;4964705;28;20492;-47
2022/06/01 06:38:01;;;;;;;18.00;13.20;;;10.00;1.00;;;;;;4962398;28;21025;-47
2022/06/01 06:40:27;;;;;;;16.57;13.10;;;10.10;99.90;;;;;;4966523;28;20499;-47
2022/06/01 06:42:53;;;;;;;17.90;12.97;;;10.10;21.70;;;;;;4962833;28;20440;-48
2022/06/01 06:45:20;;;;;;;15.50;12.87;;;10.10;1.00;;;;;;4967478;28;20181;-48
2022/06/01 06:47:45;;;;;;;15.77;13.30;;;10.00;99.90;;;;;;4962542;28;20528;-48
2022/06/01 06:50:13;;;;;;;14.20;11.97;;;10.00;99.90;;;;;;4967010;28;20579;-48
2022/06/01 06:52:39;;;;;;;19.40;13.40;;;10.00;1.00;;;;;;4966781;28;20185;-48
2022/06/01 06:55:06;;;;;;;19.47;13.10;;;10.00;99.90;;;;;;4967447;28;20527;-48
2022/06/01 06:57:32;;;;;;;20.33;13.70;;;10.00;1.00;;;;;;4962261;28;20474;-48
2022/06/01 06:59:57;;;;;;;17.70;14.20;;;10.00;1.00;;;;;;4965772;28;20440;-48
2022/06/01 07:02:23;;;;;;;17.63;13.50;;;10.10;99.90;;;;;;4963355;28;20194;-48
2022/06/01 07:04:48;;;;;;;16.90;13.17;;;10.20;1.00;;;;;;4971390;28;20189;-48
2022/06/01 07:07:15;;;;;;;17.90;13.10;;;10.20;1.00;;;;;;4968520;28;20181;-48
2022/06/01 07:09:41;;;;;;;15.77;13.90;;;10.20;99.90;;;;;;4965361;28;20260;-48
2022/06/01 07:12:07;;;;;;;22.00;12.43;;;10.20;1.00;;;;;;4962575;28;20437;-48
2022/06/01 07:14:33;;;;;;;17.83;13.73;;;10.30;99.90;;;;;;4963575;28;20524;-48
2022/06/01 07:17:00;;;;;;;17.23;13.33;;;10.30;99.90;;;;;;4967946;28;20472;-48
2022/06/01 07:19:25;;;;;;;17.53;13.03;;;10.40;99.90;;;;;;4961895;28;20437;-48
2022/06/01 07:21:51;;;;;;;17.90;14.60;;;10.50;99.90;;;;;;4966941;28;20844;-48
2022/06/01 07:24:16;;;;;;;19.90;13.40;;;10.50;99.90;;;;;;4963614;28;20655;-48
2022/06/01 07:26:44;;;;;;;16.17;13.10;;;10.60;99.90;;;;;;4965465;28;20252;-48
2022/06/01 07:29:10;;;;;;;18.33;14.30;;;10.70;99.90;;;;;;4973649;28;20185;-48
2022/06/01 07:31:36;;;;;;;16.17;13.83;;;10.80;99.90;;;;;;4962107;28;21371;-48
2022/06/01 07:34:02;;;;;;;17.90;13.40;;;10.80;99.90;;;;;;4966220;28;20547;-48
2022/06/01 07:36:29;;;;;;;15.23;12.20;;;11.00;99.90;;;;;;4961839;28;20224;-48
2022/06/01 07:44:52;;;;;;;16.30;12.67;;;11.20;99.90;;;;;;4958059;28;20478;-45
2022/06/01 07:47:18;;;;;;;19.83;12.93;;;11.30;99.90;;;;;;4964965;28;20954;-46
2022/06/01 07:49:44;;;;;;;14.80;12.07;;;11.40;99.90;;;;;;4956916;28;20447;-45
2022/06/01 07:52:12;;;;;;;13.93;11.33;;;11.50;99.90;;;;;;4965155;28;20456;-45
2022/06/01 07:54:39;;;;;;;17.13;12.23;;;11.60;1.00;;;;;;4960293;28;20272;-45
2022/06/01 07:57:05;;;;;;;15.70;11.40;;;11.60;1.00;;;;;;4960168;28;20540;-47
2022/06/01 07:59:31;;;;;;;15.33;11.80;;;11.60;99.90;;;;;;4964457;28;20892;-47
2022/06/01 08:01:56;;;;;;;13.77;11.50;;;11.70;10.60;;;;;;4964205;28;20480;-47
2022/06/01 08:04:22;;;;;;;18.63;12.57;;;11.80;99.90;;;;;;4959776;28;20183;-47
2022/06/01 08:06:47;;;;;;;13.50;11.30;;;12.00;19.60;;;;;;4961621;28;20213;-47
2022/06/01 08:09:13;;;;;;;14.60;10.93;;;12.10;99.90;;;;;;4964899;28;20245;-46
2022/06/01 08:14:23;;;;;;;15.40;11.30;;;12.30;99.90;;;;;;4958457;28;20244;-48
2022/06/01 08:16:49;;;;;;;14.57;10.93;;;12.60;1.00;;;;;;4966140;28;20464;-48
2022/06/01 08:19:15;;;;;;;17.80;11.40;;;12.60;1.00;;;;;;4959960;28;20292;-51
2022/06/01 08:21:41;;;;;;;12.70;11.20;;;12.70;99.90;;;;;;4969125;28;20188;-51
2022/06/01 08:24:07;;;;;;;14.73;11.30;;;12.70;99.90;;;;;;4959320;28;20540;-52
2022/06/01 08:26:34;;;;;;;12.67;10.87;;;12.80;99.90;;;;;;4961944;28;20425;-52
2022/06/01 08:28:59;;;;;;;13.80;11.43;;;12.90;89.60;;;;;;4964270;28;20428;-52
2022/06/01 08:31:27;;;;;;;16.93;11.30;;;13.10;61.30;;;;;;4967420;28;20440;-52
2022/06/01 08:33:57;;;;;;;14.90;10.40;;;13.40;1.00;;;;;;4958142;28;20201;-47
2022/06/01 08:36:22;;;;;;;11.43;10.20;;;13.80;1.00;;;;;;4963196;28;20465;-47
2022/06/01 08:38:48;;;;;;;8.33;7.50;;;14.00;1.00;;;;;;4965092;28;21227;-47
2022/06/01 08:41:16;;;;;;;10.50;8.27;;;14.30;1.00;;;;;;4959849;28;20956;-47
2022/06/01 08:43:51;;;;;;;9.23;6.80;;;14.60;1.00;;;;;;4959011;28;20276;-46
2022/06/01 08:46:17;;;;;;;9.77;7.67;;;15.10;99.90;;;;;;4960574;28;20447;-45
2022/06/01 08:48:48;;;;;;;7.70;6.57;;;15.90;99.90;;;;;;4965547;28;20561;-46
2022/06/01 08:51:15;;;;;;;5.90;5.37;;;16.70;99.90;;;;;;4956057;28;20469;-46
2022/06/01 08:53:41;;;;;;;6.20;5.60;;;17.40;99.90;;;;;;4958738;28;20443;-46
2022/06/01 08:56:11;;;;;;;5.33;4.83;;;17.60;99.90;;;;;;4960537;28;20456;-45
2022/06/01 08:58:56;;;;;;;6.07;5.10;;;17.50;99.90;;;;;;4963934;28;20572;-45
2022/06/01 09:01:45;;;;;;;5.57;5.07;;;17.20;99.90;;;;;;4961656;28;20425;-46
2022/06/01 09:04:48;;;;;;;8.63;5.63;;;16.80;99.90;;;;;;4963387;28;20439;-45
2022/06/01 09:07:18;;;;;;;5.40;4.90;;;16.30;99.90;;;;;;4963486;28;20433;-46
2022/06/01 09:09:44;;;;;;;6.33;5.03;;;15.80;99.90;;;;;;4968307;28;21068;-46
2022/06/01 09:12:09;;;;;;;5.30;4.77;;;15.60;99.90;;;;;;4972136;28;20456;-46
2022/06/01 09:14:38;;;;;;;4.53;4.10;;;15.50;99.90;;;;;;4973380;28;20274;-46
2022/06/01 09:17:04;;;;;;;4.97;4.50;;;15.50;99.90;;;;;;4970712;28;20212;-45
2022/06/01 09:22:42;;;;;;;5.50;4.10;;;16.60;99.90;;;;;;4970072;28;20350;-46
2022/06/01 09:25:25;;;;;;;5.70;5.20;;;17.70;99.90;;;;;;4967335;28;20427;-46
2022/06/01 09:27:53;;;;;;;4.80;4.27;;;18.50;99.90;;;;;;4972800;28;20444;-46
2022/06/01 09:30:21;;;;;;;4.70;4.30;;;18.70;99.90;;;;;;4970485;28;20433;-46
2022/06/01 09:33:14;;;;;;;5.47;4.70;;;18.70;99.90;;;;;;4968072;28;20762;-46
2022/06/01 09:36:08;;;;;;;7.47;4.97;;;18.60;99.90;;;;;;4962997;28;20436;-46
2022/06/01 09:39:00;;;;;;;5.57;4.40;;;18.30;99.90;;;;;;4972830;28;20917;-46
2022/06/01 09:41:36;;;;;;;4.53;4.10;;;17.50;99.90;;;;;;4965941;28;20424;-46
2022/06/01 09:44:30;;;;;;;5.50;4.73;;;17.10;99.90;;;;;;4964222;28;20416;-45
2022/06/01 09:47:00;;;;;;;5.17;4.67;;;17.20;99.90;;;;;;4965527;28;20435;-45
2022/06/01 09:49:34;;;;;;;5.00;3.80;;;17.50;99.90;;;;;;4970361;28;20425;-46
2022/06/01 09:52:08;;;;;;;4.03;3.70;;;17.80;99.90;;;;;;4963460;28;20471;-45
2022/06/01 09:54:37;;;;;;;4.23;3.87;;;17.60;99.90;;;;;;4960508;28;21108;-46
2022/06/01 09:57:27;;;;;;;4.10;3.57;;;17.50;99.90;;;;;;4966705;28;20472;-45
2022/06/01 10:08:28;;;;;;;3.50;3.20;;;16.90;99.90;;;;;;4966696;28;20997;-49
2022/06/01 10:11:17;;;;;;;2.20;2.10;;;16.90;99.90;;;;;;4970999;28;20429;-49
2022/06/01 10:13:53;;;;;;;2.30;2.20;;;17.40;99.90;;;;;;4960401;28;20460;-47
2022/06/01 10:16:27;;;;;;;2.20;2.10;;;18.30;99.90;;;;;;4964092;28;20470;-48
2022/06/01 10:18:55;;;;;;;2.30;2.20;;;19.40;99.90;;;;;;4967266;28;20548;-48
2022/06/01 10:21:27;;;;;;;2.60;2.40;;;20.30;99.90;;;;;;4966949;28;20444;-48
2022/06/01 10:23:56;;;;;;;2.60;2.40;;;20.50;99.90;;;;;;4968373;28;21064;-48
2022/06/01 10:26:29;;;;;;;3.17;2.97;;;20.80;99.90;;;;;;4963273;28;20429;-47
2022/06/01 10:29:03;;;;;;;3.97;3.67;;;21.00;99.90;;;;;;4963213;28;20554;-48
2022/06/01 10:31:38;;;;;;;4.57;4.07;;;21.30;99.90;;;;;;4956379;28;20502;-48
2022/06/01 10:34:26;;;;;;;3.70;3.40;;;21.80;99.90;;;;;;4961235;28;20440;-48
2022/06/01 10:37:19;;;;;;;4.37;3.97;;;22.40;99.90;;;;;;4963157;28;20469;-48
2022/06/01 10:39:49;;;;;;;5.03;3.83;;;23.00;99.90;;;;;;4965067;28;20962;-48
2022/06/01 10:45:18;;;;;;;4.30;3.90;;;23.00;99.90;;;;;;4966703;28;20463;-46
2022/06/01 10:48:29;;;;;;;4.40;3.70;;;22.00;99.90;;;;;;4959901;28;20437;-45
2022/06/01 10:51:17;;;;;;;5.63;3.70;;;21.40;99.90;;;;;;4963799;28;20504;-45
2022/06/01 10:53:57;;;;;;;3.87;3.57;;;21.00;99.90;;;;;;4965016;28;20447;-45
2022/06/01 10:56:23;;;;;;;3.83;3.57;;;20.60;99.90;;;;;;4962159;28;20551;-45
2022/06/01 10:58:51;;;;;;;4.97;4.07;;;20.50;99.90;;;;;;4963442;28;20526;-46
2022/06/01 11:01:34;;;;;;;4.90;4.20;;;20.10;99.90;;;;;;4961889;28;20185;-46
2022/06/01 11:04:21;;;;;;;4.07;3.77;;;20.40;99.90;;;;;;4969622;28;20432;-45
2022/06/01 11:07:00;;;;;;;4.10;3.73;;;21.40;99.90;;;;;;4963928;28;20844;-46
2022/06/01 11:09:44;;;;;;;4.20;3.80;;;22.40;99.90;;;;;;4960923;28;20427;-45
2022/06/01 11:12:34;;;;;;;3.73;3.43;;;22.50;99.90;;;;;;4959634;28;20432;-45
2022/06/01 11:15:18;;;;;;;3.37;3.13;;;21.70;99.90;;;;;;4963124;28;20786;-45
2022/06/01 11:17:56;;;;;;;3.70;3.40;;;22.10;99.90;;;;;;4965705;28;20469;-45
2022/06/01 11:20:44;;;;;;;3.97;3.37;;;22.90;99.90;;;;;;4963146;28;20439;-45
2022/06/01 11:23:51;;;;;;;4.10;3.00;;;23.50;99.90;;;;;;4962700;28;20587;-45
2022/06/01 11:26:28;;;;;;;4.10;3.80;;;23.30;99.90;;;;;;4960878;28;20417;-46
2022/06/01 11:29:15;;;;;;;3.73;3.30;;;22.00;99.90;;;;;;4960834;28;20982;-46
2022/06/01 11:31:44;;;;;;;4.63;4.17;;;22.10;99.90;;;;;;4962995;28;20503;-48
2022/06/01 11:34:15;;;;;;;5.53;4.07;;;22.50;99.90;;;;;;4960695;28;20413;-45
2022/06/01 11:36:53;;;;;;;4.00;3.70;;;22.60;99.90;;;;;;4966030;28;20472;-46
2022/06/01 11:39:40;;;;;;;5.57;4.17;;;23.20;99.90;;;;;;4965239;28;20495;-46
2022/06/01 11:42:27;;;;;;;5.30;4.77;;;23.40;99.90;;;;;;4965441;28;20448;-46
2022/06/01 11:45:00;;;;;;;6.03;5.43;;;23.10;99.90;;;;;;4962820;28;20451;-46
2022/06/01 11:47:30;;;;;;;6.87;5.33;;;22.60;99.90;;;;;;4967069;28;20464;-46
2022/06/01 11:50:10;;;;;;;6.10;5.40;;;21.50;99.90;;;;;;4954545;28;20441;-45
2022/06/01 11:52:57;;;;;;;6.20;5.60;;;21.50;99.90;;;;;;4965007;28;20900;-46
2022/06/01 11:55:35;;;;;;;7.40;5.83;;;22.20;99.90;;;;;;4965718;28;20777;-46
2022/06/01 11:58:28;;;;;;;5.63;5.10;;;21.90;99.90;;;;;;4960405;28;20545;-46
2022/06/01 12:01:11;;;;;;;7.17;5.37;;;21.20;99.90;;;;;;4964904;28;20419;-46
2022/06/01 12:03:51;;;;;;;6.73;6.13;;;20.40;99.90;;;;;;4969624;28;20528;-46
2022/06/01 12:06:41;;;;;;;8.97;5.50;;;19.80;99.90;;;;;;4964689;28;20432;-46
2022/06/01 12:09:16;;;;;;;8.90;6.80;;;19.20;99.90;;;;;;4961509;28;20479;-47
2022/06/01 12:11:47;;;;;;;8.67;7.77;;;19.00;99.90;;;;;;4967138;28;20573;-47
2022/06/01 12:14:26;;;;;;;11.27;8.53;;;19.30;99.90;;;;;;4966040;28;20443;-46
2022/06/01 12:17:22;;;;;;;10.83;7.83;;;20.20;99.90;;;;;;4969094;28;20558;-46
2022/06/01 12:19:51;;;;;;;9.83;8.50;;;21.30;99.90;;;;;;4966213;28;20432;-46
2022/06/01 12:28:45;;;;;;;9.07;8.00;;;22.00;99.90;;;;;;4964525;28;20491;-46
2022/06/01 12:31:18;;;;;;;9.23;8.27;;;22.40;99.90;;;;;;4969375;28;20507;-46
2022/06/01 12:34:04;;;;;;;9.47;8.20;;;22.30;99.90;;;;;;4966159;28;20904;-47
2022/06/01 12:36:35;;;;;;;9.40;8.50;;;22.30;99.90;;;;;;4964855;28;20467;-46
2022/06/01 12:39:16;;;;;;;10.90;9.63;;;21.90;99.90;;;;;;4964576;28;20470;-46
2022/06/01 12:41:46;;;;;;;9.80;8.80;;;22.10;99.90;;;;;;4967280;28;20475;-47
2022/06/01 12:44:13;;;;;;;10.70;9.50;;;21.90;99.90;;;;;;4964788;28;20953;-46
2022/06/01 12:46:45;;;;;;;11.53;9.87;;;21.50;99.90;;;;;;4959913;28;20460;-46
2022/06/01 12:49:33;;;;;;;10.80;9.67;;;20.80;99.90;;;;;;4967839;28;20527;-46
2022/06/01 12:52:21;;;;;;;13.90;9.07;;;20.50;99.90;;;;;;4967965;28;21105;-46
2022/06/01 12:55:07;;;;;;;11.17;10.10;;;21.40;99.90;;;;;;4968784;28;20444;-47
2022/06/01 12:57:41;;;;;;;19.07;11.43;;;21.80;99.90;;;;;;4959293;28;20942;-46
2022/06/01 13:00:13;;;;;;;20.70;11.10;;;22.00;99.90;;;;;;4967107;28;20445;-46
2022/06/01 13:02:40;;;;;;;15.20;11.60;;;21.50;99.90;;;;;;4967216;28;20466;-46
2022/06/01 13:05:10;;;;;;;17.07;13.53;;;21.30;99.90;;;;;;4960611;28;20482;-47
2022/06/01 13:07:41;;;;;;;16.77;14.17;;;20.70;99.90;;;;;;4963542;28;20433;-46
2022/06/01 13:10:11;;;;;;;21.03;18.17;;;19.80;99.90;;;;;;4961742;28;20440;-46
2022/06/01 13:12:37;;;;;;;21.47;19.17;;;18.90;99.90;;;;;;4961566;28;20926;-46
2022/06/01 13:15:32;;;;;;;22.77;19.80;;;18.20;99.90;;;;;;4968357;28;20444;-46
2022/06/01 13:18:01;;;;;;;10.43;9.30;;;17.40;99.90;;;;;;4944777;28;20526;-47
2022/06/01 13:20:48;;;;;;;5.90;5.37;;;16.70;99.90;;;;;;4964235;28;20471;-46
2022/06/01 13:23:28;;;;;;;5.90;4.67;;;16.00;99.90;;;;;;4956441;28;20433;-45
2022/06/01 13:26:02;;;;;;;6.93;3.70;;;15.60;99.90;;;;;;4961352;28;20465;-46
2022/06/01 13:28:28;;;;;;;5.33;4.00;;;15.20;99.90;;;;;;4963262;28;20434;-46
2022/06/01 13:30:56;;;;;;;4.57;3.80;;;14.90;99.90;;;;;;4965094;28;20969;-45
2022/06/01 13:33:36;;;;;;;3.40;3.10;;;14.70;99.90;;;;;;4963056;28;20432;-46
2022/06/01 13:36:25;;;;;;;4.80;3.27;;;14.50;99.90;;;;;;4963568;28;20447;-47
2022/06/01 13:38:59;;;;;;;3.30;3.00;;;14.50;99.90;;;;;;4964046;28;20444;-46
2022/06/01 13:41:36;;;;;;;3.90;3.00;;;14.30;99.90;;;;;;4965385;28;20440;-47
2022/06/01 13:44:05;;;;;;;3.17;2.97;;;14.20;99.90;;;;;;4964185;28;20510;-46
2022/06/01 13:46:38;;;;;;;7.27;3.60;;;14.10;99.90;;;;;;4971499;28;20448;-46